Time;durP1;ratioP1;P1;durP2;ratioP2;P2;SDS_P1;SDS_P2;PMS_P1;PMS_P2;Temp;Humidity;BMP_temperature;BMP_pressure;BME280_temperature;BME280_humidity;BME280_pressure;Samples;Min_cycle;Max_cycle;Signal;HPM_P1;HPM_P2
2022/07/19 00:00:20;;;;;;;8.60;3.00;;;21.70;99.90;;;;;;5071724;28;20515;-79
2022/07/19 00:02:47;;;;;;;6.63;3.00;;;21.70;99.90;;;;;;5070452;28;20554;-77
2022/07/19 00:05:15;;;;;;;8.00;3.33;;;21.70;99.90;;;;;;5071585;28;20451;-78
2022/07/19 00:07:43;;;;;;;6.73;3.00;;;21.60;99.90;;;;;;5070936;28;20550;-80
2022/07/19 00:10:11;;;;;;;4.40;2.67;;;21.60;99.90;;;;;;5070610;28;20466;-80
2022/07/19 00:12:39;;;;;;;6.00;2.77;;;21.60;99.90;;;;;;5071804;28;20512;-79
2022/07/19 00:15:10;;;;;;;5.43;2.70;;;21.50;99.90;;;;;;5071743;28;20455;-77
2022/07/19 00:17:40;;;;;;;5.63;3.00;;;21.50;99.90;;;;;;5072453;28;20541;-78
2022/07/19 00:20:09;;;;;;;8.53;2.77;;;21.50;99.90;;;;;;5072184;28;21033;-79
2022/07/19 00:22:36;;;;;;;4.63;2.87;;;21.50;99.90;;;;;;5064109;28;20451;-77
2022/07/19 00:25:03;;;;;;;5.23;2.53;;;21.50;99.90;;;;;;5071228;28;21022;-77
2022/07/19 00:27:30;;;;;;;4.47;3.10;;;21.50;99.90;;;;;;5070160;28;21010;-78
2022/07/19 00:29:57;;;;;;;6.43;2.27;;;21.40;99.90;;;;;;5071143;28;20925;-81
2022/07/19 00:32:25;;;;;;;7.20;2.70;;;21.40;99.90;;;;;;5071090;28;20537;-78
2022/07/19 00:34:52;;;;;;;4.90;2.93;;;21.40;99.90;;;;;;5073334;28;21031;-77
2022/07/19 00:37:19;;;;;;;7.43;3.00;;;21.30;99.90;;;;;;5074664;28;20557;-78
2022/07/19 00:39:46;;;;;;;4.47;2.57;;;21.30;99.90;;;;;;5073979;28;20514;-78
2022/07/19 00:42:14;;;;;;;4.50;2.27;;;21.30;99.90;;;;;;5074476;28;20601;-78
2022/07/19 00:44:41;;;;;;;8.80;3.07;;;21.30;99.90;;;;;;5072748;28;20801;-78
2022/07/19 00:47:08;;;;;;;5.23;2.37;;;21.30;99.90;;;;;;5074760;28;20910;-80
2022/07/19 00:49:36;;;;;;;5.40;2.87;;;21.20;99.90;;;;;;5073264;28;20890;-78
2022/07/19 00:52:04;;;;;;;5.37;2.90;;;21.20;99.90;;;;;;5074769;28;20486;-79
2022/07/19 00:54:34;;;;;;;6.33;2.53;;;21.20;99.90;;;;;;5081675;28;20565;-78
2022/07/19 00:57:03;;;;;;;4.80;2.40;;;21.20;99.90;;;;;;5076191;28;20871;-77
2022/07/19 00:59:32;;;;;;;6.43;3.10;;;21.20;99.90;;;;;;5053898;28;20543;-79
2022/07/19 01:02:00;;;;;;;5.30;2.33;;;21.20;99.90;;;;;;5053425;28;20916;-77
2022/07/19 01:04:27;;;;;;;5.87;2.43;;;21.10;99.90;;;;;;5072214;28;20459;-81
2022/07/19 01:06:55;;;;;;;4.10;2.40;;;21.10;99.90;;;;;;5073583;28;20999;-77
2022/07/19 01:09:22;;;;;;;5.20;3.07;;;21.10;99.90;;;;;;5073341;28;20487;-78
2022/07/19 01:11:49;;;;;;;5.73;2.77;;;21.00;99.90;;;;;;5073303;28;20475;-79
2022/07/19 01:14:16;;;;;;;8.07;2.63;;;21.00;99.90;;;;;;5072346;28;20446;-78
2022/07/19 01:16:46;;;;;;;4.60;2.43;;;21.00;99.90;;;;;;5073752;28;20486;-80
2022/07/19 01:19:13;;;;;;;5.80;2.70;;;21.00;99.90;;;;;;5072822;28;20523;-78
2022/07/19 01:21:42;;;;;;;5.20;3.10;;;21.00;99.90;;;;;;5073520;28;20478;-78
2022/07/19 01:24:09;;;;;;;6.07;2.43;;;20.90;99.90;;;;;;5072094;28;20559;-78
2022/07/19 01:26:36;;;;;;;5.90;2.63;;;20.90;99.90;;;;;;5073253;28;20629;-79
2022/07/19 01:29:03;;;;;;;4.70;2.63;;;20.90;99.90;;;;;;5073325;28;20485;-78
2022/07/19 01:31:30;;;;;;;4.70;2.60;;;20.90;99.90;;;;;;5072773;28;20554;-80
2022/07/19 01:33:57;;;;;;;4.57;2.47;;;20.90;99.90;;;;;;5072657;28;20542;-78
2022/07/19 01:36:23;;;;;;;6.50;3.63;;;20.90;99.90;;;;;;5072465;28;20542;-76
2022/07/19 01:38:51;;;;;;;5.00;2.27;;;20.90;99.90;;;;;;5072608;28;20943;-79
2022/07/19 01:41:18;;;;;;;6.20;2.63;;;20.90;99.90;;;;;;5072688;28;21001;-79
2022/07/19 01:43:45;;;;;;;5.47;2.40;;;20.90;99.90;;;;;;5072011;28;20447;-79
2022/07/19 01:46:12;;;;;;;5.67;2.47;;;20.80;99.90;;;;;;5072765;28;20906;-81
2022/07/19 01:48:39;;;;;;;5.43;2.60;;;20.80;99.90;;;;;;5072995;28;20578;-79
2022/07/19 01:51:06;;;;;;;4.63;2.33;;;20.80;99.90;;;;;;5072523;28;20493;-78
2022/07/19 01:53:33;;;;;;;4.53;2.70;;;20.80;99.90;;;;;;5071807;28;20545;-79
2022/07/19 01:56:05;;;;;;;4.80;2.50;;;20.80;99.90;;;;;;5072210;28;20461;-81
2022/07/19 01:58:32;;;;;;;6.60;2.67;;;20.80;99.90;;;;;;5073095;28;20498;-78
2022/07/19 02:00:59;;;;;;;3.53;2.20;;;20.70;99.90;;;;;;5072740;28;20510;-78
2022/07/19 02:03:25;;;;;;;6.17;2.87;;;20.70;99.90;;;;;;5071140;28;20490;-75
2022/07/19 02:05:52;;;;;;;3.50;1.97;;;20.70;99.90;;;;;;5072516;28;20458;-79
2022/07/19 02:08:19;;;;;;;5.23;2.23;;;20.70;99.90;;;;;;5072149;28;20554;-79
2022/07/19 02:10:46;;;;;;;4.30;2.93;;;20.70;99.90;;;;;;5071785;28;20521;-78
2022/07/19 02:13:15;;;;;;;6.03;2.50;;;20.70;99.90;;;;;;5071510;28;20849;-78
2022/07/19 02:15:41;;;;;;;5.47;3.23;;;20.60;99.90;;;;;;5071959;28;20557;-80
2022/07/19 02:18:08;;;;;;;5.03;2.30;;;20.60;99.90;;;;;;5072379;28;20542;-79
2022/07/19 02:20:35;;;;;;;7.20;2.93;;;20.60;99.90;;;;;;5072238;28;20471;-77
2022/07/19 02:23:02;;;;;;;4.53;2.60;;;20.60;99.90;;;;;;5071582;28;20486;-77
2022/07/19 02:25:29;;;;;;;4.23;2.70;;;20.60;99.90;;;;;;5071331;28;20530;-79
2022/07/19 02:27:56;;;;;;;4.73;2.10;;;20.60;99.90;;;;;;5072449;28;20486;-82
2022/07/19 02:30:24;;;;;;;6.30;2.63;;;20.50;99.90;;;;;;5072001;28;20573;-76
2022/07/19 02:32:51;;;;;;;4.57;2.43;;;20.50;99.90;;;;;;5071579;28;20451;-79
2022/07/19 02:35:18;;;;;;;5.70;2.87;;;20.50;99.90;;;;;;5071542;28;20481;-77
2022/07/19 02:37:45;;;;;;;4.37;2.37;;;20.50;99.90;;;;;;5071869;28;20447;-78
2022/07/19 02:40:12;;;;;;;4.27;2.40;;;20.50;99.90;;;;;;5069078;28;20525;-76
2022/07/19 02:42:39;;;;;;;5.80;2.53;;;20.50;99.90;;;;;;5051703;28;20487;-78
2022/07/19 02:45:07;;;;;;;6.07;2.77;;;20.40;99.90;;;;;;5069222;28;20466;-81
2022/07/19 02:47:35;;;;;;;4.50;3.10;;;20.40;99.90;;;;;;5072437;28;20446;-78
2022/07/19 02:50:02;;;;;;;4.10;2.70;;;20.40;99.90;;;;;;5070212;28;20573;-78
2022/07/19 02:52:30;;;;;;;5.47;2.73;;;20.40;99.90;;;;;;5073056;28;20549;-80
2022/07/19 02:54:57;;;;;;;4.40;2.30;;;20.40;99.90;;;;;;5079799;28;20451;-78
2022/07/19 02:57:24;;;;;;;5.00;2.47;;;20.40;99.90;;;;;;5071632;28;20895;-78
2022/07/19 02:59:51;;;;;;;4.77;2.90;;;20.30;99.90;;;;;;5071479;28;20449;-78
2022/07/19 03:02:18;;;;;;;4.43;2.10;;;20.30;99.90;;;;;;5070925;28;20559;-79
2022/07/19 03:04:46;;;;;;;5.47;2.50;;;20.30;99.90;;;;;;5070506;28;21350;-78
2022/07/19 03:07:13;;;;;;;7.10;2.33;;;20.30;99.90;;;;;;5071890;28;20443;-78
2022/07/19 03:09:40;;;;;;;4.57;2.10;;;20.30;99.90;;;;;;5071329;28;20491;-82
2022/07/19 03:12:07;;;;;;;4.33;2.43;;;20.20;99.90;;;;;;5071031;28;20530;-80
2022/07/19 03:14:34;;;;;;;3.47;2.03;;;20.20;99.90;;;;;;5071979;28;20447;-78
2022/07/19 03:17:01;;;;;;;7.07;2.13;;;20.20;99.90;;;;;;5072659;28;20490;-78
2022/07/19 03:19:28;;;;;;;5.70;2.57;;;20.20;99.90;;;;;;5072278;28;20458;-79
2022/07/19 03:21:56;;;;;;;4.80;2.50;;;20.20;99.90;;;;;;5070362;28;20558;-78
2022/07/19 03:24:23;;;;;;;4.80;2.67;;;20.20;99.90;;;;;;5058983;28;20483;-76
2022/07/19 03:26:50;;;;;;;5.03;1.97;;;20.20;99.90;;;;;;5071021;28;20447;-77
2022/07/19 03:29:17;;;;;;;5.00;2.63;;;20.20;99.90;;;;;;5071556;28;20489;-77
2022/07/19 03:31:44;;;;;;;5.67;2.50;;;20.20;99.90;;;;;;5070871;28;20473;-78
2022/07/19 03:34:11;;;;;;;6.03;2.40;;;20.10;99.90;;;;;;5070819;28;20454;-77
2022/07/19 03:36:37;;;;;;;4.07;2.50;;;20.10;99.90;;;;;;5070907;28;20518;-78
2022/07/19 03:39:06;;;;;;;4.70;2.00;;;20.10;99.90;;;;;;5070818;28;21232;-78
2022/07/19 03:41:33;;;;;;;4.40;2.27;;;20.10;99.90;;;;;;5070494;28;20502;-78
2022/07/19 03:44:00;;;;;;;5.10;2.53;;;20.10;99.90;;;;;;5070373;28;20538;-77
2022/07/19 03:46:28;;;;;;;5.20;2.70;;;20.10;99.90;;;;;;5070728;28;20451;-81
2022/07/19 03:48:55;;;;;;;4.30;2.80;;;20.10;99.90;;;;;;5070953;28;20451;-77
2022/07/19 03:51:22;;;;;;;3.87;2.10;;;20.10;99.90;;;;;;5069310;28;20480;-78
2022/07/19 03:53:49;;;;;;;5.07;2.30;;;20.10;99.90;;;;;;5070521;28;20478;-78
2022/07/19 03:56:20;;;;;;;4.37;2.00;;;20.10;99.90;;;;;;5070348;28;20549;-78
2022/07/19 03:58:48;;;;;;;4.80;2.20;;;20.00;99.90;;;;;;5071234;28;20451;-76
2022/07/19 04:01:15;;;;;;;4.27;2.30;;;20.00;99.90;;;;;;5070857;28;20486;-78
2022/07/19 04:03:41;;;;;;;6.37;2.70;;;20.00;99.90;;;;;;5070239;28;20475;-81
2022/07/19 04:06:10;;;;;;;6.23;2.33;;;20.00;99.90;;;;;;5070187;28;20538;-79
2022/07/19 04:08:38;;;;;;;7.07;2.30;;;20.00;99.90;;;;;;5087196;22;20491;-78
2022/07/19 04:11:05;;;;;;;6.53;2.90;;;20.00;99.90;;;;;;5063371;28;20487;-78
2022/07/19 04:13:35;;;;;;;6.27;2.90;;;20.00;99.90;;;;;;5063865;28;20515;-81
2022/07/19 04:16:02;;;;;;;3.33;2.27;;;20.10;99.90;;;;;;5063898;28;20455;-79
2022/07/19 04:18:29;;;;;;;6.10;2.83;;;20.10;99.90;;;;;;5056398;28;20468;-80
2022/07/19 04:20:56;;;;;;;6.63;2.83;;;20.10;99.90;;;;;;5045017;28;20551;-83
2022/07/19 04:23:22;;;;;;;4.70;2.30;;;20.10;99.90;;;;;;5041486;28;20476;-78
2022/07/19 04:25:49;;;;;;;4.10;2.23;;;20.10;99.90;;;;;;5036458;28;20476;-77
2022/07/19 04:28:18;;;;;;;7.60;2.70;;;20.10;99.90;;;;;;5036326;28;20468;-79
2022/07/19 04:30:48;;;;;;;6.57;2.70;;;20.20;99.90;;;;;;5037679;28;20586;-77
2022/07/19 04:33:20;;;;;;;4.23;2.50;;;20.20;99.90;;;;;;5048009;28;20440;-78
2022/07/19 04:35:47;;;;;;;5.33;2.20;;;20.20;99.90;;;;;;5044414;28;20492;-77
2022/07/19 04:38:14;;;;;;;5.13;2.70;;;20.20;99.90;;;;;;5030989;28;20555;-77
2022/07/19 04:40:40;;;;;;;5.47;2.63;;;20.30;99.90;;;;;;5031207;28;20451;-76
2022/07/19 04:43:08;;;;;;;4.60;2.70;;;20.30;99.90;;;;;;5033621;28;20457;-81
2022/07/19 04:45:34;;;;;;;5.57;2.80;;;20.30;99.90;;;;;;5035032;28;20452;-75
2022/07/19 04:48:03;;;;;;;4.97;2.60;;;20.30;99.90;;;;;;5034659;28;20555;-79
2022/07/19 04:50:30;;;;;;;6.13;2.67;;;20.40;99.90;;;;;;5030753;28;20527;-76
2022/07/19 04:52:57;;;;;;;6.03;2.40;;;20.40;99.90;;;;;;5033107;28;20460;-75
2022/07/19 04:55:24;;;;;;;3.60;2.60;;;20.40;99.90;;;;;;5032267;28;20461;-75
2022/07/19 04:57:51;;;;;;;4.37;2.80;;;20.50;99.90;;;;;;5032327;28;20563;-75
2022/07/19 05:00:19;;;;;;;6.20;2.40;;;20.60;99.90;;;;;;5034150;28;20488;-76
2022/07/19 05:02:46;;;;;;;4.33;2.30;;;20.60;99.90;;;;;;5035398;28;20444;-80
2022/07/19 05:05:17;;;;;;;3.53;2.23;;;20.60;99.90;;;;;;5050346;28;20544;-76
2022/07/19 05:07:44;;;;;;;5.10;2.70;;;20.70;99.90;;;;;;5041650;28;20568;-81
2022/07/19 05:10:11;;;;;;;3.70;2.23;;;20.70;99.90;;;;;;5046544;28;20515;-79
2022/07/19 05:12:38;;;;;;;5.03;2.80;;;20.80;99.90;;;;;;5040667;28;20896;-81
2022/07/19 05:15:07;;;;;;;7.80;2.97;;;20.80;99.90;;;;;;5037682;28;20543;-81
2022/07/19 05:17:33;;;;;;;4.60;2.40;;;20.90;99.90;;;;;;5036897;28;20548;-77
2022/07/19 05:20:00;;;;;;;4.77;2.77;;;20.90;99.90;;;;;;5034111;28;20901;-80
2022/07/19 05:22:29;;;;;;;5.60;2.63;;;21.00;99.90;;;;;;5034521;28;20459;-76
2022/07/19 05:24:56;;;;;;;4.30;2.43;;;21.10;99.90;;;;;;5022659;28;20445;-76
2022/07/19 05:27:23;;;;;;;6.00;3.00;;;21.10;99.90;;;;;;5035159;28;20969;-76
2022/07/19 05:29:50;;;;;;;6.90;2.60;;;21.20;99.90;;;;;;5041360;28;20506;-81
2022/07/19 05:32:17;;;;;;;4.80;2.70;;;21.20;99.90;;;;;;5048641;28;20484;-80
2022/07/19 05:34:46;;;;;;;6.00;2.43;;;21.30;99.90;;;;;;5047164;28;20488;-82
2022/07/19 05:37:12;;;;;;;5.17;2.73;;;21.40;99.90;;;;;;5033065;28;20970;-79
2022/07/19 05:39:41;;;;;;;6.57;3.10;;;21.40;99.90;;;;;;5042338;28;20904;-78
2022/07/19 05:42:08;;;;;;;6.17;2.73;;;21.40;99.90;;;;;;5032136;28;20548;-76
2022/07/19 05:44:35;;;;;;;5.40;2.80;;;21.50;99.90;;;;;;5035181;28;20446;-75
2022/07/19 05:47:01;;;;;;;7.23;3.10;;;21.60;99.90;;;;;;5029542;28;20448;-78
2022/07/19 05:49:28;;;;;;;8.53;2.90;;;21.70;99.90;;;;;;5031224;28;20488;-74
2022/07/19 05:51:55;;;;;;;5.93;2.77;;;21.70;99.90;;;;;;5032989;28;20464;-74
2022/07/19 05:54:22;;;;;;;7.80;3.87;;;21.80;99.90;;;;;;5032955;28;20539;-79
2022/07/19 05:56:50;;;;;;;7.70;2.93;;;21.90;99.90;;;;;;5033553;28;20460;-79
2022/07/19 05:59:20;;;;;;;4.20;2.53;;;21.90;99.90;;;;;;5034843;28;20483;-79
2022/07/19 06:01:47;;;;;;;7.83;2.80;;;22.00;99.90;;;;;;5029180;28;21026;-79
2022/07/19 06:04:14;;;;;;;7.37;2.97;;;22.00;99.90;;;;;;5041804;28;20519;-79
2022/07/19 06:06:41;;;;;;;6.40;2.60;;;22.10;99.90;;;;;;5029217;28;20448;-77
2022/07/19 06:09:11;;;;;;;6.27;2.20;;;22.20;99.90;;;;;;5025759;28;20480;-74
2022/07/19 06:11:39;;;;;;;4.77;2.10;;;22.30;99.90;;;;;;5025950;28;20492;-75
2022/07/19 06:14:11;;;;;;;7.10;2.10;;;22.30;99.90;;;;;;5023624;28;20953;-75
2022/07/19 06:16:40;;;;;;;5.67;2.30;;;22.40;99.90;;;;;;5028458;28;20468;-75
2022/07/19 06:19:11;;;;;;;3.40;1.93;;;22.50;99.90;;;;;;5025264;28;20480;-79
2022/07/19 06:21:38;;;;;;;6.13;2.43;;;22.60;99.90;;;;;;5025063;28;20541;-75
2022/07/19 06:24:06;;;;;;;5.80;2.33;;;22.70;99.90;;;;;;5030913;28;20531;-76
2022/07/19 06:26:33;;;;;;;4.23;2.30;;;22.80;99.90;;;;;;5030393;28;20548;-75
2022/07/19 06:29:00;;;;;;;5.93;2.83;;;22.90;99.90;;;;;;5026708;28;20534;-75
2022/07/19 06:31:28;;;;;;;3.03;1.93;;;23.00;99.90;;;;;;5023339;28;20489;-78
2022/07/19 06:33:55;;;;;;;6.57;2.63;;;23.10;99.90;;;;;;5022720;28;20468;-79
2022/07/19 06:36:22;;;;;;;6.50;2.33;;;23.20;99.90;;;;;;5021856;28;20905;-76
2022/07/19 06:38:49;;;;;;;4.80;2.00;;;23.30;99.90;;;;;;5021573;28;20586;-78
2022/07/19 06:41:17;;;;;;;6.97;2.07;;;23.40;99.90;;;;;;5024032;28;20450;-79
2022/07/19 06:43:44;;;;;;;3.73;2.40;;;23.50;99.90;;;;;;5020183;28;20449;-80
2022/07/19 06:46:11;;;;;;;5.63;2.40;;;23.60;99.90;;;;;;5025960;28;20547;-77
2022/07/19 06:48:40;;;;;;;3.80;2.00;;;23.70;99.90;;;;;;5031414;28;20504;-79
2022/07/19 06:51:07;;;;;;;6.40;2.50;;;23.80;99.90;;;;;;5031421;28;20565;-78
2022/07/19 06:53:34;;;;;;;4.50;2.37;;;23.80;99.90;;;;;;5031298;28;20452;-77
2022/07/19 06:56:01;;;;;;;7.20;2.70;;;23.90;99.90;;;;;;5025754;28;20452;-77
2022/07/19 06:58:29;;;;;;;5.80;2.27;;;24.00;99.90;;;;;;5031667;28;20472;-77
2022/07/19 07:00:56;;;;;;;6.30;2.53;;;24.00;99.90;;;;;;5031619;28;20453;-78
2022/07/19 07:03:23;;;;;;;5.37;2.30;;;24.10;99.90;;;;;;5033462;28;20466;-79
2022/07/19 07:05:51;;;;;;;7.13;2.50;;;24.20;99.90;;;;;;5038448;28;20540;-76
2022/07/19 07:08:18;;;;;;;6.77;2.60;;;24.30;99.90;;;;;;5027311;28;20587;-78
2022/07/19 07:10:44;;;;;;;5.23;2.67;;;24.40;99.90;;;;;;5026919;28;20848;-78
2022/07/19 07:13:11;;;;;;;5.87;2.43;;;24.50;99.90;;;;;;5023854;28;20536;-78
2022/07/19 07:15:39;;;;;;;11.47;2.70;;;24.60;99.90;;;;;;5025033;28;20591;-78
2022/07/19 07:18:07;;;;;;;6.83;2.40;;;24.70;99.90;;;;;;5025034;28;20481;-77
2022/07/19 07:20:34;;;;;;;8.20;2.43;;;24.90;99.90;;;;;;5027495;28;20540;-77
2022/07/19 07:23:03;;;;;;;5.20;2.23;;;25.00;99.90;;;;;;5036244;28;20448;-78
2022/07/19 07:25:30;;;;;;;3.80;2.47;;;25.20;99.90;;;;;;5033805;28;20456;-79
2022/07/19 07:27:57;;;;;;;9.10;2.23;;;25.30;99.90;;;;;;5022149;28;20572;-78
2022/07/19 07:30:24;;;;;;;9.47;2.40;;;25.50;99.90;;;;;;5011715;28;20588;-76
2022/07/19 07:32:50;;;;;;;7.63;2.23;;;25.70;99.90;;;;;;5019092;28;20544;-77
2022/07/19 07:35:17;;;;;;;5.43;2.03;;;25.80;99.90;;;;;;5021131;28;20528;-78
2022/07/19 07:37:44;;;;;;;6.73;2.40;;;25.90;99.90;;;;;;5022795;28;21004;-81
2022/07/19 07:40:13;;;;;;;4.90;2.33;;;26.00;99.90;;;;;;5041423;28;20455;-76
2022/07/19 07:42:40;;;;;;;5.13;2.63;;;26.10;99.90;;;;;;5041974;28;20600;-77
2022/07/19 07:45:09;;;;;;;6.80;2.50;;;26.20;99.90;;;;;;5027796;28;20500;-79
2022/07/19 07:47:36;;;;;;;7.33;2.47;;;26.30;99.90;;;;;;5030535;28;20522;-77
2022/07/19 07:50:05;;;;;;;12.20;3.07;;;26.50;99.90;;;;;;5029355;28;20456;-77
2022/07/19 07:52:32;;;;;;;6.07;2.87;;;26.60;99.90;;;;;;5012861;28;20969;-78
2022/07/19 07:54:59;;;;;;;10.27;2.70;;;26.70;99.90;;;;;;5029256;28;20489;-75
2022/07/19 07:57:27;;;;;;;6.30;2.50;;;27.00;99.90;;;;;;5031836;28;20464;-77
2022/07/19 07:59:54;;;;;;;6.00;3.00;;;27.10;99.90;;;;;;5027641;28;20536;-78
2022/07/19 08:02:21;;;;;;;9.43;3.00;;;27.30;99.90;;;;;;5025760;28;20471;-80
2022/07/19 08:04:48;;;;;;;7.13;2.67;;;27.40;99.90;;;;;;5031018;28;20456;-79
2022/07/19 08:07:15;;;;;;;12.00;2.50;;;27.50;99.90;;;;;;5028309;28;20450;-78
2022/07/19 08:09:42;;;;;;;7.33;3.00;;;27.70;99.90;;;;;;5022458;28;20473;-79
2022/07/19 08:12:09;;;;;;;7.10;3.00;;;27.80;99.90;;;;;;5028729;28;20530;-79
2022/07/19 08:14:37;;;;;;;5.70;2.30;;;27.90;99.90;;;;;;5026658;28;20572;-81
2022/07/19 08:17:04;;;;;;;3.77;2.13;;;28.20;99.90;;;;;;5026571;28;20535;-79
2022/07/19 08:19:31;;;;;;;4.53;2.40;;;28.30;99.90;;;;;;5029529;28;20464;-76
2022/07/19 08:21:58;;;;;;;5.20;2.10;;;28.50;99.90;;;;;;5023359;28;20446;-78
2022/07/19 08:24:24;;;;;;;4.50;2.03;;;28.70;99.90;;;;;;5022917;28;21022;-78
2022/07/19 08:26:51;;;;;;;4.90;2.33;;;28.90;99.90;;;;;;5026749;28;21015;-80
2022/07/19 08:29:18;;;;;;;5.97;2.47;;;29.10;99.90;;;;;;5027699;28;20469;-79
2022/07/19 08:31:46;;;;;;;4.30;2.23;;;29.30;99.90;;;;;;5025379;28;20488;-77
2022/07/19 08:34:13;;;;;;;3.97;2.10;;;29.50;99.90;;;;;;5021597;28;20572;-78
2022/07/19 08:36:40;;;;;;;3.90;2.10;;;29.70;99.90;;;;;;5023880;28;20468;-77
2022/07/19 08:39:07;;;;;;;3.53;2.03;;;29.80;99.90;;;;;;5025743;28;20855;-79
2022/07/19 08:41:35;;;;;;;3.30;2.00;;;30.00;99.90;;;;;;5026494;28;20452;-78
2022/07/19 08:44:03;;;;;;;4.10;1.93;;;30.20;99.90;;;;;;5022585;28;20523;-76
2022/07/19 08:46:30;;;;;;;4.43;2.47;;;30.40;99.90;;;;;;5032327;28;20540;-76
2022/07/19 08:48:59;;;;;;;4.83;1.83;;;30.60;99.90;;;;;;5030917;28;20583;-79
2022/07/19 08:51:27;;;;;;;6.63;2.40;;;30.80;99.90;;;;;;5015976;28;20863;-78
2022/07/19 08:53:54;;;;;;;5.67;2.00;;;30.90;99.90;;;;;;5024657;28;20463;-78
2022/07/19 08:59:06;;;;;;;4.53;2.03;;;31.30;99.90;;;;;;5027605;28;20464;-78
2022/07/19 09:01:33;;;;;;;4.63;2.20;;;31.50;99.90;;;;;;5021605;28;20541;-80
2022/07/19 09:04:10;;;;;;;3.80;2.00;;;31.80;99.90;;;;;;5022855;28;20454;-78
2022/07/19 09:06:42;;;;;;;4.23;2.27;;;32.00;99.90;;;;;;5026458;28;21040;-78
2022/07/19 09:09:10;;;;;;;3.90;2.07;;;32.20;99.90;;;;;;5027354;28;20572;-79
2022/07/19 09:11:40;;;;;;;5.53;1.90;;;32.40;99.90;;;;;;5025406;28;20484;-78
2022/07/19 09:14:08;;;;;;;4.70;2.30;;;32.50;98.90;;;;;;5024669;28;20472;-77
2022/07/19 09:16:53;;;;;;;3.30;1.60;;;32.70;96.40;;;;;;5028548;28;20445;-78
2022/07/19 09:19:22;;;;;;;4.30;2.37;;;32.80;94.10;;;;;;5030498;28;20976;-79
2022/07/19 09:21:58;;;;;;;3.10;1.73;;;33.00;93.30;;;;;;5025575;28;20541;-78
2022/07/19 09:24:26;;;;;;;3.90;1.90;;;33.20;93.80;;;;;;5027141;28;20459;-77
2022/07/19 09:26:58;;;;;;;3.97;2.57;;;33.40;94.00;;;;;;5027347;28;20483;-78
2022/07/19 09:29:25;;;;;;;3.97;2.37;;;33.50;92.60;;;;;;5028503;28;21209;-78
2022/07/19 09:32:00;;;;;;;5.53;2.10;;;33.60;88.00;;;;;;5028204;28;20497;-77
2022/07/19 09:34:33;;;;;;;4.03;2.03;;;33.80;96.20;;;;;;5026400;28;20474;-77
2022/07/19 09:37:10;;;;;;;4.07;2.30;;;33.90;92.80;;;;;;5026678;28;20532;-77
2022/07/19 09:39:39;;;;;;;4.27;2.20;;;34.20;97.00;;;;;;5022323;28;20476;-79
2022/07/19 09:42:06;;;;;;;6.20;2.23;;;34.20;89.80;;;;;;5026481;28;20453;-80
2022/07/19 09:44:33;;;;;;;4.90;2.53;;;34.40;89.90;;;;;;5027199;28;20559;-81
2022/07/19 09:47:00;;;;;;;4.23;2.20;;;34.50;92.80;;;;;;5034424;28;20440;-79
2022/07/19 09:49:28;;;;;;;3.50;2.20;;;34.70;82.70;;;;;;5029332;28;20473;-78
2022/07/19 09:51:56;;;;;;;6.33;2.40;;;35.00;93.00;;;;;;5039472;28;20582;-79
2022/07/19 09:54:25;;;;;;;3.80;1.80;;;35.10;92.20;;;;;;5031662;28;20545;-77
2022/07/19 09:56:53;;;;;;;5.80;4.10;;;35.20;87.70;;;;;;5026960;28;20457;-81
2022/07/19 09:59:21;;;;;;;6.37;2.40;;;35.50;84.90;;;;;;5027438;28;20499;-80
2022/07/19 10:01:50;;;;;;;4.20;2.03;;;35.50;78.80;;;;;;5026191;28;20551;-80
2022/07/19 10:04:18;;;;;;;5.20;1.80;;;35.70;83.50;;;;;;5020342;28;20541;-78
2022/07/19 10:06:46;;;;;;;3.50;2.20;;;35.90;86.80;;;;;;5027865;28;20457;-79
2022/07/19 10:09:17;;;;;;;3.13;2.13;;;36.00;84.30;;;;;;5032109;28;20588;-80
2022/07/19 10:11:44;;;;;;;3.80;2.30;;;35.90;68.30;;;;;;5041348;28;20587;-81
2022/07/19 10:14:12;;;;;;;6.90;3.13;;;35.90;64.30;;;;;;5042723;28;20532;-81
2022/07/19 10:16:57;;;;;;;5.30;2.10;;;36.10;68.90;;;;;;5039283;28;20535;-81
2022/07/19 10:19:31;;;;;;;5.10;2.40;;;36.30;71.60;;;;;;5034055;28;20479;-80
2022/07/19 10:21:59;;;;;;;4.10;2.00;;;36.40;76.40;;;;;;5037472;28;20640;-79
2022/07/19 10:24:51;;;;;;;4.70;1.97;;;36.60;69.20;;;;;;5036128;28;20547;-79
2022/07/19 10:27:34;;;;;;;4.17;2.30;;;36.60;65.40;;;;;;5037455;28;20576;-81
2022/07/19 10:30:17;;;;;;;4.50;2.00;;;36.80;68.80;;;;;;5035253;28;20460;-79
2022/07/19 10:32:47;;;;;;;3.80;1.87;;;36.90;67.30;;;;;;5031610;28;20528;-79
2022/07/19 10:35:18;;;;;;;3.13;2.03;;;37.00;68.50;;;;;;5030056;28;20452;-78
2022/07/19 10:37:47;;;;;;;4.47;2.40;;;37.10;66.40;;;;;;5028623;28;20525;-79
2022/07/19 10:40:36;;;;;;;3.50;1.77;;;37.20;58.50;;;;;;5024913;28;20456;-79
2022/07/19 10:43:07;;;;;;;3.50;2.10;;;37.30;59.10;;;;;;5025393;28;20539;-80
2022/07/19 10:45:34;;;;;;;4.10;1.73;;;37.60;69.30;;;;;;5029058;28;20489;-80
2022/07/19 10:48:12;;;;;;;5.10;2.30;;;37.50;62.70;;;;;;5036456;28;20551;-80
2022/07/19 10:50:48;;;;;;;3.80;1.90;;;37.50;58.30;;;;;;5039673;28;20440;-80
2022/07/19 10:53:44;;;;;;;3.20;1.93;;;37.70;66.90;;;;;;5035211;28;20452;-77
2022/07/19 10:56:19;;;;;;;4.13;2.27;;;38.00;61.80;;;;;;5010703;28;20456;-79
2022/07/19 10:58:49;;;;;;;5.97;2.10;;;38.10;68.10;;;;;;5025407;28;20568;-76
2022/07/19 11:01:17;;;;;;;5.50;1.70;;;38.50;63.40;;;;;;5029798;28;20460;-80
2022/07/19 11:03:46;;;;;;;4.63;2.87;;;38.60;61.90;;;;;;5035578;28;20536;-80
2022/07/19 11:06:21;;;;;;;3.23;1.60;;;38.80;62.00;;;;;;5030283;28;20489;-80
2022/07/19 11:08:48;;;;;;;4.20;2.00;;;39.10;57.10;;;;;;5026504;28;20483;-78
2022/07/19 11:11:17;;;;;;;6.30;2.10;;;39.30;59.00;;;;;;5026068;28;20567;-82
2022/07/19 11:17:51;;;;;;;4.70;2.17;;;39.10;99.90;;;;;;4981247;28;20443;-83
2022/07/19 11:20:19;;;;;;;3.27;2.03;;;39.10;99.90;;;;;;5026940;28;20840;-79
2022/07/19 11:22:48;;;;;;;3.50;2.00;;;39.60;99.90;;;;;;5028945;28;20442;-77
2022/07/19 11:25:17;;;;;;;3.83;2.17;;;40.00;99.90;;;;;;5028062;28;20477;-78
2022/07/19 11:27:47;;;;;;;5.17;2.00;;;40.20;99.90;;;;;;5029932;28;20488;-75
2022/07/19 11:30:15;;;;;;;3.70;2.10;;;40.60;99.90;;;;;;5024401;28;20450;-77
2022/07/19 11:32:51;;;;;;;4.57;2.07;;;40.60;99.90;;;;;;5026753;28;20580;-82
2022/07/19 11:35:17;;;;;;;3.77;1.70;;;40.70;99.90;;;;;;5029055;28;20495;-78
2022/07/19 11:37:45;;;;;;;4.50;1.87;;;40.90;99.90;;;;;;5034207;28;20500;-82
2022/07/19 11:40:13;;;;;;;3.50;1.80;;;41.20;99.90;;;;;;5035165;28;20460;-82
2022/07/19 11:42:41;;;;;;;4.50;2.27;;;41.30;99.90;;;;;;5043502;28;20844;-81
2022/07/19 11:45:11;;;;;;;5.87;2.40;;;41.40;99.90;;;;;;5042493;28;20881;-81
2022/07/19 11:47:41;;;;;;;5.40;2.33;;;41.60;99.90;;;;;;5043459;28;20476;-80
2022/07/19 11:50:11;;;;;;;5.93;1.90;;;41.70;99.90;;;;;;5033582;28;20477;-79
2022/07/19 11:52:47;;;;;;;3.73;2.10;;;41.90;99.90;;;;;;5032499;28;20516;-80
2022/07/19 11:55:15;;;;;;;5.53;2.20;;;41.90;99.90;;;;;;5024967;28;20457;-78
2022/07/19 11:57:42;;;;;;;4.30;2.20;;;42.00;99.90;;;;;;5036609;28;20519;-79
2022/07/19 12:00:10;;;;;;;5.60;2.23;;;42.00;99.90;;;;;;5033797;28;20496;-79
2022/07/19 12:02:58;;;;;;;5.87;2.23;;;41.90;99.90;;;;;;5034790;28;20454;-81
2022/07/19 12:05:27;;;;;;;5.00;2.07;;;42.00;99.90;;;;;;5039988;28;20573;-81
2022/07/19 12:07:58;;;;;;;3.03;1.90;;;41.90;99.90;;;;;;5040621;28;20504;-80
2022/07/19 12:10:42;;;;;;;3.43;1.97;;;41.50;99.90;;;;;;5037248;28;21027;-82
2022/07/19 12:13:12;;;;;;;4.10;2.23;;;41.60;99.90;;;;;;5040459;28;20514;-81
2022/07/19 12:15:51;;;;;;;4.77;2.00;;;41.70;99.90;;;;;;5034207;28;20461;-80
2022/07/19 12:18:21;;;;;;;4.90;1.90;;;41.90;99.90;;;;;;5033055;28;20469;-81
2022/07/19 12:21:20;;;;;;;4.33;2.03;;;41.60;99.90;;;;;;5043363;28;20461;-80
2022/07/19 12:24:21;;;;;;;3.23;2.10;;;41.90;99.90;;;;;;5039866;28;20445;-78
2022/07/19 12:27:03;;;;;;;3.83;2.40;;;42.40;99.90;;;;;;4995744;28;20486;-81
2022/07/19 12:29:31;;;;;;;4.70;1.97;;;42.60;99.90;;;;;;5001153;28;20549;-81
2022/07/19 12:32:01;;;;;;;5.17;2.43;;;42.80;99.90;;;;;;5021335;28;20472;-79
2022/07/19 12:34:29;;;;;;;4.77;2.03;;;42.80;99.90;;;;;;5036510;28;20545;-80
2022/07/19 12:36:58;;;;;;;4.50;3.30;;;43.10;99.90;;;;;;5037992;28;20985;-81
2022/07/19 12:39:29;;;;;;;3.77;2.17;;;43.20;99.90;;;;;;5035750;28;20559;-83
2022/07/19 12:41:58;;;;;;;5.37;2.20;;;43.40;99.90;;;;;;5034088;28;21165;-83
2022/07/19 12:44:26;;;;;;;3.23;1.87;;;43.00;99.90;;;;;;5034027;28;20476;-81
2022/07/19 12:46:53;;;;;;;3.30;1.77;;;42.90;99.90;;;;;;5041678;28;20461;-82
2022/07/19 12:49:20;;;;;;;3.77;1.80;;;42.70;99.90;;;;;;5045185;28;20496;-83
2022/07/19 12:51:47;;;;;;;5.70;2.67;;;42.50;99.90;;;;;;5042881;28;20516;-80
2022/07/19 12:54:16;;;;;;;3.07;1.97;;;42.60;99.90;;;;;;5042988;28;20452;-80
2022/07/19 12:56:42;;;;;;;3.90;1.77;;;42.70;99.90;;;;;;5039062;28;20460;-84
2022/07/19 13:01:53;;;;;;;5.27;1.73;;;42.90;99.90;;;;;;5039982;28;20939;-82